sensor_id;sensor_type;location;lat;lon;timestamp;pressure;altitude;pressure_sealevel;temperature;humidity
58385;BME280;44185;47.844;8.966;2022-07-12T00:01:12;96795.59;;;13.22;96.77
58385;BME280;44185;47.844;8.966;2022-07-12T00:03:38;96794.09;;;13.29;95.49
58385;BME280;44185;47.844;8.966;2022-07-12T00:06:04;96802.63;;;13.33;95.50
58385;BME280;44185;47.844;8.966;2022-07-12T00:08:29;96800.63;;;13.25;95.91
58385;BME280;44185;47.844;8.966;2022-07-12T00:10:55;96795.03;;;13.18;96.11
58385;BME280;44185;47.844;8.966;2022-07-12T00:13:20;96802.56;;;13.13;96.47
58385;BME280;44185;47.844;8.966;2022-07-12T00:15:47;96802.44;;;13.24;96.01
58385;BME280;44185;47.844;8.966;2022-07-12T00:18:13;96811.84;;;13.29;94.32
58385;BME280;44185;47.844;8.966;2022-07-12T00:20:38;96808.34;;;13.28;94.05
58385;BME280;44185;47.844;8.966;2022-07-12T00:23:04;96806.97;;;13.34;93.74
58385;BME280;44185;47.844;8.966;2022-07-12T00:25:29;96803.88;;;13.29;93.08
58385;BME280;44185;47.844;8.966;2022-07-12T00:27:55;96808.31;;;13.18;93.37
58385;BME280;44185;47.844;8.966;2022-07-12T00:30:20;96809.25;;;13.07;94.34
58385;BME280;44185;47.844;8.966;2022-07-12T00:32:47;96810.19;;;12.96;95.39
58385;BME280;44185;47.844;8.966;2022-07-12T00:35:13;96807.75;;;12.83;95.33
58385;BME280;44185;47.844;8.966;2022-07-12T00:37:39;96801.75;;;12.81;95.31
58385;BME280;44185;47.844;8.966;2022-07-12T00:40:05;96804.00;;;12.86;95.03
58385;BME280;44185;47.844;8.966;2022-07-12T00:42:30;96804.00;;;12.86;95.68
58385;BME280;44185;47.844;8.966;2022-07-12T00:44:56;96805.13;;;12.62;95.95
58385;BME280;44185;47.844;8.966;2022-07-12T00:47:29;96801.19;;;12.34;99.26
58385;BME280;44185;47.844;8.966;2022-07-12T00:49:58;96805.78;;;12.32;99.75
58385;BME280;44185;47.844;8.966;2022-07-12T00:52:23;96806.63;;;12.33;100.00
58385;BME280;44185;47.844;8.966;2022-07-12T00:54:49;96809.44;;;12.31;100.00
58385;BME280;44185;47.844;8.966;2022-07-12T00:57:15;96798.78;;;12.53;98.81
58385;BME280;44185;47.844;8.966;2022-07-12T00:59:40;96794.91;;;12.57;98.58
58385;BME280;44185;47.844;8.966;2022-07-12T01:02:06;96795.94;;;12.66;97.92
58385;BME280;44185;47.844;8.966;2022-07-12T01:04:32;96797.03;;;12.63;98.33
58385;BME280;44185;47.844;8.966;2022-07-12T01:07:00;96797.19;;;12.40;99.15
58385;BME280;44185;47.844;8.966;2022-07-12T01:09:25;96801.63;;;12.18;100.00
58385;BME280;44185;47.844;8.966;2022-07-12T01:11:51;96797.19;;;12.19;100.00
58385;BME280;44185;47.844;8.966;2022-07-12T01:14:17;96790.78;;;12.21;100.00
58385;BME280;44185;47.844;8.966;2022-07-12T01:16:43;96793.16;;;12.25;100.00
58385;BME280;44185;47.844;8.966;2022-07-12T01:19:11;96798.16;;;12.39;100.00
58385;BME280;44185;47.844;8.966;2022-07-12T01:21:40;96791.81;;;12.30;100.00
58385;BME280;44185;47.844;8.966;2022-07-12T01:24:08;96800.44;;;12.22;100.00
58385;BME280;44185;47.844;8.966;2022-07-12T01:26:35;96794.13;;;12.02;100.00
58385;BME280;44185;47.844;8.966;2022-07-12T01:29:01;96798.97;;;12.18;100.00
58385;BME280;44185;47.844;8.966;2022-07-12T01:31:27;96797.44;;;12.16;100.00
58385;BME280;44185;47.844;8.966;2022-07-12T01:33:53;96797.44;;;12.16;100.00
58385;BME280;44185;47.844;8.966;2022-07-12T01:36:18;96793.13;;;12.15;100.00
58385;BME280;44185;47.844;8.966;2022-07-12T01:38:44;96797.34;;;12.06;100.00
58385;BME280;44185;47.844;8.966;2022-07-12T01:41:11;96802.88;;;12.14;100.00
58385;BME280;44185;47.844;8.966;2022-07-12T01:43:36;96803.28;;;12.31;99.31
58385;BME280;44185;47.844;8.966;2022-07-12T01:46:02;96796.47;;;12.38;98.51
58385;BME280;44185;47.844;8.966;2022-07-12T01:48:27;96803.41;;;12.29;97.21
58385;BME280;44185;47.844;8.966;2022-07-12T01:50:53;96805.69;;;12.34;96.51
58385;BME280;44185;47.844;8.966;2022-07-12T01:53:18;96799.00;;;12.40;97.08
58385;BME280;44185;47.844;8.966;2022-07-12T01:55:44;96801.78;;;12.38;97.11
58385;BME280;44185;47.844;8.966;2022-07-12T01:58:14;96795.56;;;12.49;95.86
58385;BME280;44185;47.844;8.966;2022-07-12T02:00:40;96796.72;;;12.35;96.91
58385;BME280;44185;47.844;8.966;2022-07-12T02:03:06;96784.25;;;12.26;96.91
58385;BME280;44185;47.844;8.966;2022-07-12T02:05:31;96789.34;;;12.17;97.64
58385;BME280;44185;47.844;8.966;2022-07-12T02:07:57;96791.97;;;11.96;100.00
58385;BME280;44185;47.844;8.966;2022-07-12T02:10:22;96787.06;;;12.12;99.37
58385;BME280;44185;47.844;8.966;2022-07-12T02:12:48;96791.63;;;12.22;98.38
58385;BME280;44185;47.844;8.966;2022-07-12T02:15:15;96786.56;;;12.19;97.05
58385;BME280;44185;47.844;8.966;2022-07-12T02:17:40;96782.69;;;12.23;96.43
58385;BME280;44185;47.844;8.966;2022-07-12T02:20:09;96782.84;;;12.10;96.30
58385;BME280;44185;47.844;8.966;2022-07-12T02:22:35;96792.63;;;12.09;96.40
58385;BME280;44185;47.844;8.966;2022-07-12T02:25:00;96788.66;;;12.15;97.12
58385;BME280;44185;47.844;8.966;2022-07-12T02:27:26;96796.75;;;12.02;97.74
58385;BME280;44185;47.844;8.966;2022-07-12T02:29:51;96800.56;;;11.88;97.42
58385;BME280;44185;47.844;8.966;2022-07-12T02:32:18;96794.44;;;11.76;97.36
58385;BME280;44185;47.844;8.966;2022-07-12T02:34:44;96789.50;;;11.71;99.15
58385;BME280;44185;47.844;8.966;2022-07-12T02:37:09;96793.22;;;11.80;98.55
58385;BME280;44185;47.844;8.966;2022-07-12T02:39:35;96792.38;;;11.79;98.64
58385;BME280;44185;47.844;8.966;2022-07-12T02:42:00;96800.13;;;11.71;98.80
58385;BME280;44185;47.844;8.966;2022-07-12T02:44:25;96791.91;;;11.74;100.00
58385;BME280;44185;47.844;8.966;2022-07-12T02:46:51;96790.84;;;11.65;100.00
58385;BME280;44185;47.844;8.966;2022-07-12T02:49:18;96797.63;;;11.58;100.00
58385;BME280;44185;47.844;8.966;2022-07-12T02:51:43;96792.47;;;11.56;100.00
58385;BME280;44185;47.844;8.966;2022-07-12T02:54:09;96793.41;;;11.55;100.00
58385;BME280;44185;47.844;8.966;2022-07-12T02:56:34;96793.41;;;11.55;100.00
58385;BME280;44185;47.844;8.966;2022-07-12T02:59:00;96793.50;;;11.65;100.00
58385;BME280;44185;47.844;8.966;2022-07-12T03:01:25;96801.22;;;11.68;100.00
58385;BME280;44185;47.844;8.966;2022-07-12T03:03:51;96797.59;;;11.70;100.00
58385;BME280;44185;47.844;8.966;2022-07-12T03:06:17;96792.72;;;11.53;99.46
58385;BME280;44185;47.844;8.966;2022-07-12T03:08:43;96793.41;;;11.55;99.06
58385;BME280;44185;47.844;8.966;2022-07-12T03:11:08;96801.53;;;11.42;99.19
58385;BME280;44185;47.844;8.966;2022-07-12T03:13:34;96801.44;;;11.32;100.00
58385;BME280;44185;47.844;8.966;2022-07-12T03:15:59;96799.00;;;11.41;100.00
58385;BME280;44185;47.844;8.966;2022-07-12T03:18:25;96804.03;;;11.55;100.00
58385;BME280;44185;47.844;8.966;2022-07-12T03:20:50;96813.16;;;11.63;100.00
58385;BME280;44185;47.844;8.966;2022-07-12T03:23:17;96810.16;;;11.56;100.00
58385;BME280;44185;47.844;8.966;2022-07-12T03:25:42;96813.78;;;11.55;100.00
58385;BME280;44185;47.844;8.966;2022-07-12T03:28:08;96819.22;;;11.53;100.00
58385;BME280;44185;47.844;8.966;2022-07-12T03:30:33;96815.22;;;11.59;100.00
58385;BME280;44185;47.844;8.966;2022-07-12T03:32:59;96816.69;;;11.52;100.00
58385;BME280;44185;47.844;8.966;2022-07-12T03:35:24;96809.56;;;11.52;100.00
58385;BME280;44185;47.844;8.966;2022-07-12T03:37:50;96815.84;;;11.51;100.00
58385;BME280;44185;47.844;8.966;2022-07-12T03:40:19;96812.56;;;11.59;100.00
58385;BME280;44185;47.844;8.966;2022-07-12T03:42:45;96812.69;;;11.57;99.58
58385;BME280;44185;47.844;8.966;2022-07-12T03:45:12;96819.34;;;11.52;99.40
58385;BME280;44185;47.844;8.966;2022-07-12T03:47:38;96817.63;;;11.62;99.25
58385;BME280;44185;47.844;8.966;2022-07-12T03:50:04;96821.47;;;11.58;98.43
58385;BME280;44185;47.844;8.966;2022-07-12T03:52:30;96823.75;;;11.63;99.04
58385;BME280;44185;47.844;8.966;2022-07-12T03:54:56;96823.75;;;11.63;99.61
58385;BME280;44185;47.844;8.966;2022-07-12T03:57:23;96815.19;;;11.71;99.42
58385;BME280;44185;47.844;8.966;2022-07-12T03:59:48;96817.25;;;11.67;99.00
58385;BME280;44185;47.844;8.966;2022-07-12T04:02:13;96828.50;;;11.48;100.00
58385;BME280;44185;47.844;8.966;2022-07-12T04:04:39;96827.03;;;11.55;99.33
58385;BME280;44185;47.844;8.966;2022-07-12T04:07:05;96831.16;;;11.48;99.44
58385;BME280;44185;47.844;8.966;2022-07-12T04:09:31;96830.19;;;11.49;100.00
58385;BME280;44185;47.844;8.966;2022-07-12T04:11:56;96827.88;;;11.55;100.00
58385;BME280;44185;47.844;8.966;2022-07-12T04:14:23;96834.13;;;11.66;100.00
58385;BME280;44185;47.844;8.966;2022-07-12T04:16:48;96830.59;;;11.77;100.00
58385;BME280;44185;47.844;8.966;2022-07-12T04:19:14;96833.38;;;11.75;100.00
58385;BME280;44185;47.844;8.966;2022-07-12T04:21:40;96832.06;;;11.70;100.00
58385;BME280;44185;47.844;8.966;2022-07-12T04:24:05;96826.88;;;11.68;100.00
58385;BME280;44185;47.844;8.966;2022-07-12T04:26:31;96826.16;;;11.66;100.00
58385;BME280;44185;47.844;8.966;2022-07-12T04:28:57;96831.59;;;11.64;100.00
58385;BME280;44185;47.844;8.966;2022-07-12T04:31:24;96824.38;;;11.66;100.00
58385;BME280;44185;47.844;8.966;2022-07-12T04:33:51;96832.91;;;11.70;100.00
58385;BME280;44185;47.844;8.966;2022-07-12T04:36:16;96829.91;;;11.63;100.00
58385;BME280;44185;47.844;8.966;2022-07-12T04:38:42;96838.09;;;11.60;100.00
58385;BME280;44185;47.844;8.966;2022-07-12T04:41:07;96838.22;;;11.70;100.00
58385;BME280;44185;47.844;8.966;2022-07-12T04:43:33;96839.25;;;11.79;100.00
58385;BME280;44185;47.844;8.966;2022-07-12T04:46:05;96848.19;;;12.22;99.07
58385;BME280;44185;47.844;8.966;2022-07-12T04:48:32;96842.75;;;12.45;97.23
58385;BME280;44185;47.844;8.966;2022-07-12T04:50:57;96839.72;;;12.50;97.33
58385;BME280;44185;47.844;8.966;2022-07-12T04:53:23;96842.63;;;12.68;96.40
58385;BME280;44185;47.844;8.966;2022-07-12T04:55:48;96837.78;;;12.52;99.35
58385;BME280;44185;47.844;8.966;2022-07-12T04:58:14;96841.16;;;12.54;98.27
58385;BME280;44185;47.844;8.966;2022-07-12T05:00:39;96835.81;;;12.76;98.07
58385;BME280;44185;47.844;8.966;2022-07-12T05:03:04;96848.50;;;12.94;98.91
58385;BME280;44185;47.844;8.966;2022-07-12T05:05:31;96850.38;;;13.03;99.21
58385;BME280;44185;47.844;8.966;2022-07-12T05:07:57;96855.53;;;13.05;100.00
58385;BME280;44185;47.844;8.966;2022-07-12T05:10:22;96855.06;;;13.21;97.65
58385;BME280;44185;47.844;8.966;2022-07-12T05:12:48;96851.34;;;13.43;96.56
58385;BME280;44185;47.844;8.966;2022-07-12T05:15:13;96853.06;;;13.54;97.78
58385;BME280;44185;47.844;8.966;2022-07-12T05:17:39;96856.75;;;13.73;96.44
58385;BME280;44185;47.844;8.966;2022-07-12T05:20:05;96863.25;;;14.00;92.50
58385;BME280;44185;47.844;8.966;2022-07-12T05:22:32;96865.38;;;14.17;92.63
58385;BME280;44185;47.844;8.966;2022-07-12T05:24:57;96863.97;;;14.22;92.36
58385;BME280;44185;47.844;8.966;2022-07-12T05:27:23;96863.09;;;14.42;92.04
58385;BME280;44185;47.844;8.966;2022-07-12T05:29:48;96871.94;;;14.62;90.35
58385;BME280;44185;47.844;8.966;2022-07-12T05:32:14;96870.66;;;14.66;89.33
58385;BME280;44185;47.844;8.966;2022-07-12T05:34:39;96871.22;;;14.60;89.25
58385;BME280;44185;47.844;8.966;2022-07-12T05:37:05;96863.91;;;14.72;88.78
58385;BME280;44185;47.844;8.966;2022-07-12T05:39:31;96869.91;;;14.84;87.69
58385;BME280;44185;47.844;8.966;2022-07-12T05:41:57;96868.53;;;14.90;88.59
58385;BME280;44185;47.844;8.966;2022-07-12T05:44:22;96868.72;;;15.17;87.11
58385;BME280;44185;47.844;8.966;2022-07-12T05:46:48;96873.28;;;15.34;86.19
58385;BME280;44185;47.844;8.966;2022-07-12T05:49:14;96877.31;;;15.49;85.71
58385;BME280;44185;47.844;8.966;2022-07-12T05:51:39;96868.78;;;15.63;85.26
58385;BME280;44185;47.844;8.966;2022-07-12T05:54:04;96871.44;;;15.73;84.88
58385;BME280;44185;47.844;8.966;2022-07-12T05:56:31;96861.59;;;15.74;83.86
58385;BME280;44185;47.844;8.966;2022-07-12T05:58:57;96867.91;;;15.73;84.08
58385;BME280;44185;47.844;8.966;2022-07-12T06:01:22;96874.16;;;16.10;83.28
58385;BME280;44185;47.844;8.966;2022-07-12T06:03:48;96879.66;;;16.27;82.80
58385;BME280;44185;47.844;8.966;2022-07-12T06:06:13;96880.88;;;16.51;81.10
58385;BME280;44185;47.844;8.966;2022-07-12T06:08:39;96870.59;;;16.64;81.07
58385;BME280;44185;47.844;8.966;2022-07-12T06:11:04;96867.59;;;16.86;79.59
58385;BME280;44185;47.844;8.966;2022-07-12T06:13:31;96876.44;;;16.86;79.12
58385;BME280;44185;47.844;8.966;2022-07-12T06:15:57;96914.97;;;17.02;79.46
58385;BME280;44185;47.844;8.966;2022-07-12T06:18:22;96879.09;;;17.31;77.47
58385;BME280;44185;47.844;8.966;2022-07-12T06:20:48;96886.25;;;17.66;76.58
58385;BME280;44185;47.844;8.966;2022-07-12T06:23:13;96885.63;;;17.72;75.68
58385;BME280;44185;47.844;8.966;2022-07-12T06:25:39;96886.63;;;17.79;75.69
58385;BME280;44185;47.844;8.966;2022-07-12T06:28:05;96888.78;;;17.76;76.16
58385;BME280;44185;47.844;8.966;2022-07-12T06:30:32;96885.81;;;17.87;75.37
58385;BME280;44185;47.844;8.966;2022-07-12T06:32:57;96889.38;;;18.13;74.39
58385;BME280;44185;47.844;8.966;2022-07-12T06:35:23;96890.75;;;18.17;73.93
58385;BME280;44185;47.844;8.966;2022-07-12T06:37:48;96883.59;;;18.34;73.54
58385;BME280;44185;47.844;8.966;2022-07-12T06:40:14;96892.16;;;18.47;73.36
58385;BME280;44185;47.844;8.966;2022-07-12T06:42:39;96899.50;;;18.53;73.01
58385;BME280;44185;47.844;8.966;2022-07-12T06:45:06;96890.94;;;19.08;70.85
58385;BME280;44185;47.844;8.966;2022-07-12T06:47:33;96892.28;;;19.12;70.76
58385;BME280;44185;47.844;8.966;2022-07-12T06:49:58;96892.81;;;18.99;70.32
58385;BME280;44185;47.844;8.966;2022-07-12T06:52:23;96954.66;;;18.97;71.15
58385;BME280;44185;47.844;8.966;2022-07-12T06:54:49;96904.00;;;19.28;69.58
58385;BME280;44185;47.844;8.966;2022-07-12T06:57:14;96920.28;;;19.09;69.20
58385;BME280;44185;47.844;8.966;2022-07-12T06:59:40;96903.88;;;19.21;69.52
58385;BME280;44185;47.844;8.966;2022-07-12T07:02:06;96904.34;;;19.73;68.01
58385;BME280;44185;47.844;8.966;2022-07-12T07:04:33;96900.81;;;20.13;66.80
58385;BME280;44185;47.844;8.966;2022-07-12T07:06:58;96901.47;;;20.15;66.14
58385;BME280;44185;47.844;8.966;2022-07-12T07:09:24;96899.19;;;20.36;66.22
58385;BME280;44185;47.844;8.966;2022-07-12T07:11:52;96898.75;;;20.47;64.30
58385;BME280;44185;47.844;8.966;2022-07-12T07:14:17;96904.91;;;20.56;65.06
58385;BME280;44185;47.844;8.966;2022-07-12T07:16:43;96897.03;;;20.93;64.59
58385;BME280;44185;47.844;8.966;2022-07-12T07:19:08;96895.84;;;20.96;63.47
58385;BME280;44185;47.844;8.966;2022-07-12T07:21:35;96896.19;;;20.93;62.87
58385;BME280;44185;47.844;8.966;2022-07-12T07:24:00;96895.25;;;21.24;61.90
58385;BME280;44185;47.844;8.966;2022-07-12T07:26:26;96896.38;;;20.91;63.65
58385;BME280;44185;47.844;8.966;2022-07-12T07:28:51;96905.84;;;21.41;61.92
58385;BME280;44185;47.844;8.966;2022-07-12T07:31:17;96906.47;;;21.58;61.52
58385;BME280;44185;47.844;8.966;2022-07-12T07:33:42;96905.38;;;21.67;61.27
58385;BME280;44185;47.844;8.966;2022-07-12T07:36:08;96910.72;;;21.07;61.08
58385;BME280;44185;47.844;8.966;2022-07-12T07:38:34;96907.59;;;20.95;62.89
58385;BME280;44185;47.844;8.966;2022-07-12T07:41:00;96899.53;;;20.95;61.71
58385;BME280;44185;47.844;8.966;2022-07-12T07:43:25;96912.31;;;21.16;59.89
58385;BME280;44185;47.844;8.966;2022-07-12T07:45:51;96911.31;;;21.17;61.84
58385;BME280;44185;47.844;8.966;2022-07-12T07:48:17;96912.72;;;20.66;59.76
58385;BME280;44185;47.844;8.966;2022-07-12T07:50:43;96911.03;;;20.88;61.33
58385;BME280;44185;47.844;8.966;2022-07-12T07:53:08;96915.03;;;21.62;59.34
58385;BME280;44185;47.844;8.966;2022-07-12T07:55:35;96918.34;;;22.09;58.93
58385;BME280;44185;47.844;8.966;2022-07-12T07:58:00;96924.56;;;21.80;59.85
58385;BME280;44185;47.844;8.966;2022-07-12T08:00:26;96922.72;;;22.10;56.14
58385;BME280;44185;47.844;8.966;2022-07-12T08:02:51;96932.16;;;22.21;55.87
58385;BME280;44185;47.844;8.966;2022-07-12T08:05:18;96929.59;;;21.83;56.95
58385;BME280;44185;47.844;8.966;2022-07-12T08:07:44;96929.97;;;21.49;57.18
58385;BME280;44185;47.844;8.966;2022-07-12T08:10:09;96928.63;;;22.43;55.19
58385;BME280;44185;47.844;8.966;2022-07-12T08:12:36;96918.09;;;22.26;55.56
58385;BME280;44185;47.844;8.966;2022-07-12T08:15:01;96918.38;;;22.31;54.05
58385;BME280;44185;47.844;8.966;2022-07-12T08:17:27;96911.66;;;22.05;55.50
58385;BME280;44185;47.844;8.966;2022-07-12T08:19:52;96920.13;;;21.87;54.93
58385;BME280;44185;47.844;8.966;2022-07-12T08:22:18;96922.50;;;22.12;51.99
58385;BME280;44185;47.844;8.966;2022-07-12T08:24:43;96919.00;;;22.33;51.83
58385;BME280;44185;47.844;8.966;2022-07-12T08:27:09;96919.28;;;22.39;53.07
58385;BME280;44185;47.844;8.966;2022-07-12T08:29:36;96919.09;;;22.84;51.49
58385;BME280;44185;47.844;8.966;2022-07-12T08:32:01;96913.75;;;22.91;48.89
58385;BME280;44185;47.844;8.966;2022-07-12T08:34:27;96918.13;;;23.21;50.13
58385;BME280;44185;47.844;8.966;2022-07-12T08:36:52;96908.81;;;23.24;49.11
58385;BME280;44185;47.844;8.966;2022-07-12T08:39:18;96916.91;;;23.24;48.07
58385;BME280;44185;47.844;8.966;2022-07-12T08:41:43;96917.25;;;23.14;50.48
58385;BME280;44185;47.844;8.966;2022-07-12T08:44:09;96918.31;;;23.48;48.45
58385;BME280;44185;47.844;8.966;2022-07-12T08:46:36;96917.66;;;23.75;48.12
58385;BME280;44185;47.844;8.966;2022-07-12T08:49:07;96909.56;;;23.17;48.51
58385;BME280;44185;47.844;8.966;2022-07-12T08:51:33;96913.22;;;22.74;47.74
58385;BME280;44185;47.844;8.966;2022-07-12T08:54:06;96908.69;;;23.39;49.71
58385;BME280;44185;47.844;8.966;2022-07-12T08:56:32;96914.66;;;23.27;47.76
58385;BME280;44185;47.844;8.966;2022-07-12T08:59:11;96919.31;;;23.11;47.38
58385;BME280;44185;47.844;8.966;2022-07-12T09:01:43;96908.09;;;23.15;46.87
58385;BME280;44185;47.844;8.966;2022-07-12T09:04:12;96917.78;;;23.02;46.32
58385;BME280;44185;47.844;8.966;2022-07-12T09:06:38;96917.81;;;22.80;51.30
58385;BME280;44185;47.844;8.966;2022-07-12T09:09:03;96914.84;;;22.75;50.32
58385;BME280;44185;47.844;8.966;2022-07-12T09:11:29;96913.50;;;22.64;48.56
58385;BME280;44185;47.844;8.966;2022-07-12T09:13:55;96913.69;;;22.62;49.79
58385;BME280;44185;47.844;8.966;2022-07-12T09:16:22;96915.81;;;23.18;48.85
58385;BME280;44185;47.844;8.966;2022-07-12T09:18:49;96914.75;;;23.41;47.63
58385;BME280;44185;47.844;8.966;2022-07-12T09:21:25;96921.41;;;22.87;49.13
58385;BME280;44185;47.844;8.966;2022-07-12T09:23:52;96924.25;;;22.79;48.79
58385;BME280;44185;47.844;8.966;2022-07-12T09:26:18;96933.59;;;23.05;48.18
58385;BME280;44185;47.844;8.966;2022-07-12T09:28:43;96929.53;;;23.81;48.25
58385;BME280;44185;47.844;8.966;2022-07-12T09:31:09;96933.44;;;24.20;47.94
58385;BME280;44185;47.844;8.966;2022-07-12T09:33:34;96937.00;;;24.28;48.30
58385;BME280;44185;47.844;8.966;2022-07-12T09:36:02;96939.53;;;24.36;45.08
58385;BME280;44185;47.844;8.966;2022-07-12T09:38:28;96940.88;;;24.18;46.26
58385;BME280;44185;47.844;8.966;2022-07-12T09:40:54;96944.09;;;24.42;46.57
58385;BME280;44185;47.844;8.966;2022-07-12T09:43:20;96938.13;;;24.05;46.54
58385;BME280;44185;47.844;8.966;2022-07-12T09:45:47;96942.69;;;23.97;46.09
58385;BME280;44185;47.844;8.966;2022-07-12T09:48:13;96945.22;;;24.06;46.64
58385;BME280;44185;47.844;8.966;2022-07-12T09:50:38;96942.50;;;24.06;46.10
58385;BME280;44185;47.844;8.966;2022-07-12T09:53:08;96951.25;;;24.08;46.06
58385;BME280;44185;47.844;8.966;2022-07-12T09:55:35;96942.34;;;24.21;45.36
58385;BME280;44185;47.844;8.966;2022-07-12T09:58:02;96941.22;;;24.44;46.07
58385;BME280;44185;47.844;8.966;2022-07-12T10:00:28;96941.03;;;24.59;44.55
58385;BME280;44185;47.844;8.966;2022-07-12T10:02:55;96942.41;;;24.28;46.56
58385;BME280;44185;47.844;8.966;2022-07-12T10:05:24;96944.31;;;24.48;44.20
58385;BME280;44185;47.844;8.966;2022-07-12T10:07:50;96929.88;;;24.20;43.39
58385;BME280;44185;47.844;8.966;2022-07-12T10:10:17;96940.59;;;24.49;43.48
58385;BME280;44185;47.844;8.966;2022-07-12T10:12:44;96941.63;;;24.48;43.54
58385;BME280;44185;47.844;8.966;2022-07-12T10:15:14;96944.09;;;24.36;43.65
58385;BME280;44185;47.844;8.966;2022-07-12T10:17:41;96945.75;;;24.37;43.48
58385;BME280;44185;47.844;8.966;2022-07-12T10:20:17;96951.22;;;24.64;41.76
58385;BME280;44185;47.844;8.966;2022-07-12T10:22:42;96945.97;;;24.28;41.99
58385;BME280;44185;47.844;8.966;2022-07-12T10:25:33;96945.44;;;24.11;43.46
58385;BME280;44185;47.844;8.966;2022-07-12T10:27:59;96948.72;;;23.99;40.71
58385;BME280;44185;47.844;8.966;2022-07-12T10:30:26;96951.25;;;24.08;42.20
58385;BME280;44185;47.844;8.966;2022-07-12T10:32:52;96946.50;;;24.17;43.63
58385;BME280;44185;47.844;8.966;2022-07-12T10:35:20;96953.78;;;24.16;44.80
58385;BME280;44185;47.844;8.966;2022-07-12T10:38:13;96948.06;;;24.40;41.67
58385;BME280;44185;47.844;8.966;2022-07-12T10:40:41;96946.59;;;24.30;41.83
58385;BME280;44185;47.844;8.966;2022-07-12T10:43:18;96947.34;;;24.17;40.45
58385;BME280;44185;47.844;8.966;2022-07-12T10:45:44;96943.31;;;24.55;40.94
58385;BME280;44185;47.844;8.966;2022-07-12T10:48:20;96946.91;;;24.07;42.15
58385;BME280;44185;47.844;8.966;2022-07-12T10:50:51;96949.94;;;23.97;40.29
58385;BME280;44185;47.844;8.966;2022-07-12T10:53:24;96949.03;;;23.76;44.81
58385;BME280;44185;47.844;8.966;2022-07-12T10:56:10;96956.78;;;23.86;44.00
58385;BME280;44185;47.844;8.966;2022-07-12T10:58:37;96947.75;;;23.72;43.76
58385;BME280;44185;47.844;8.966;2022-07-12T11:01:05;96944.75;;;23.88;46.64
58385;BME280;44185;47.844;8.966;2022-07-12T11:03:30;96942.16;;;24.22;44.60
58385;BME280;44185;47.844;8.966;2022-07-12T11:06:00;96942.03;;;24.44;44.64
58385;BME280;44185;47.844;8.966;2022-07-12T11:08:26;96934.13;;;24.50;43.27
58385;BME280;44185;47.844;8.966;2022-07-12T11:10:55;96934.69;;;24.25;42.34
58385;BME280;44185;47.844;8.966;2022-07-12T11:13:22;96943.88;;;24.37;42.52
58385;BME280;44185;47.844;8.966;2022-07-12T11:15:56;96932.84;;;24.32;40.76
58385;BME280;44185;47.844;8.966;2022-07-12T11:18:31;96925.78;;;24.44;42.33
58385;BME280;44185;47.844;8.966;2022-07-12T11:20:57;96921.88;;;24.54;42.64
58385;BME280;44185;47.844;8.966;2022-07-12T11:23:24;96928.34;;;24.60;40.63
58385;BME280;44185;47.844;8.966;2022-07-12T11:25:50;96923.34;;;24.63;42.96
58385;BME280;44185;47.844;8.966;2022-07-12T11:28:17;96921.28;;;24.65;42.87
58385;BME280;44185;47.844;8.966;2022-07-12T11:30:49;96923.16;;;24.92;41.20
58385;BME280;44185;47.844;8.966;2022-07-12T11:33:15;96911.69;;;24.70;41.22
58385;BME280;44185;47.844;8.966;2022-07-12T11:35:43;96912.09;;;24.46;40.66
58385;BME280;44185;47.844;8.966;2022-07-12T11:38:09;96909.63;;;24.79;43.89
58385;BME280;44185;47.844;8.966;2022-07-12T11:40:34;96908.34;;;24.54;42.41
58385;BME280;44185;47.844;8.966;2022-07-12T11:43:02;96901.47;;;24.58;43.42
58385;BME280;44185;47.844;8.966;2022-07-12T11:45:29;96913.72;;;24.47;43.50
58385;BME280;44185;47.844;8.966;2022-07-12T11:47:58;96907.47;;;24.33;42.06
58385;BME280;44185;47.844;8.966;2022-07-12T11:50:24;96909.69;;;24.16;44.42
58385;BME280;44185;47.844;8.966;2022-07-12T11:52:49;96899.44;;;23.97;43.95
58385;BME280;44185;47.844;8.966;2022-07-12T11:55:15;96907.25;;;23.78;45.67
58385;BME280;44185;47.844;8.966;2022-07-12T11:57:40;96905.22;;;24.43;43.96
58385;BME280;44185;47.844;8.966;2022-07-12T12:00:14;96906.69;;;24.66;42.80
58385;BME280;44185;47.844;8.966;2022-07-12T12:02:39;96908.41;;;25.02;41.30
58385;BME280;44185;47.844;8.966;2022-07-12T12:05:07;96907.56;;;25.15;40.87
58385;BME280;44185;47.844;8.966;2022-07-12T12:07:33;96904.22;;;24.92;42.48
58385;BME280;44185;47.844;8.966;2022-07-12T12:09:59;96913.19;;;25.06;40.47
58385;BME280;44185;47.844;8.966;2022-07-12T12:12:25;96904.22;;;25.19;40.78
58385;BME280;44185;47.844;8.966;2022-07-12T12:14:51;96906.66;;;25.48;38.75
58385;BME280;44185;47.844;8.966;2022-07-12T12:17:16;96909.41;;;25.00;37.82
58385;BME280;44185;47.844;8.966;2022-07-12T12:19:42;96907.97;;;24.91;36.36
58385;BME280;44185;47.844;8.966;2022-07-12T12:22:30;96897.34;;;25.03;39.86
58385;BME280;44185;47.844;8.966;2022-07-12T12:24:57;96901.72;;;24.97;40.79
58385;BME280;44185;47.844;8.966;2022-07-12T12:27:23;96900.47;;;24.80;39.45
58385;BME280;44185;47.844;8.966;2022-07-12T12:29:48;96897.34;;;24.90;41.88
58385;BME280;44185;47.844;8.966;2022-07-12T12:32:17;96894.25;;;25.13;39.01
58385;BME280;44185;47.844;8.966;2022-07-12T12:34:42;96894.22;;;25.06;41.50
58385;BME280;44185;47.844;8.966;2022-07-12T12:37:28;96901.50;;;24.85;41.10
58385;BME280;44185;47.844;8.966;2022-07-12T12:39:54;96905.66;;;24.54;41.72
58385;BME280;44185;47.844;8.966;2022-07-12T12:42:23;96901.06;;;24.95;41.09
58385;BME280;44185;47.844;8.966;2022-07-12T12:44:49;96889.66;;;25.00;39.26
58385;BME280;44185;47.844;8.966;2022-07-12T12:47:14;96889.00;;;24.98;38.43
58385;BME280;44185;47.844;8.966;2022-07-12T12:49:46;96891.13;;;25.09;37.35
58385;BME280;44185;47.844;8.966;2022-07-12T12:52:12;96897.56;;;25.02;41.08
58385;BME280;44185;47.844;8.966;2022-07-12T12:54:38;96886.72;;;24.95;41.47